sensor_id;sensor_type;location;lat;lon;timestamp;P1;durP1;ratioP1;P2;durP2;ratioP2
21645;SDS011;10984;45.712;4.800;2023-07-30T00:00:01;5.32;;;3.00;;
21645;SDS011;10984;45.712;4.800;2023-07-30T00:02:28;4.43;;;2.33;;
21645;SDS011;10984;45.712;4.800;2023-07-30T00:04:54;5.63;;;2.70;;
21645;SDS011;10984;45.712;4.800;2023-07-30T00:07:21;4.50;;;2.55;;
21645;SDS011;10984;45.712;4.800;2023-07-30T00:09:47;5.20;;;2.80;;
21645;SDS011;10984;45.712;4.800;2023-07-30T00:12:13;4.53;;;2.65;;
21645;SDS011;10984;45.712;4.800;2023-07-30T00:14:40;6.05;;;2.95;;
21645;SDS011;10984;45.712;4.800;2023-07-30T00:17:06;4.93;;;2.50;;
21645;SDS011;10984;45.712;4.800;2023-07-30T00:19:32;6.82;;;3.00;;
21645;SDS011;10984;45.712;4.800;2023-07-30T00:22:00;4.63;;;2.70;;
21645;SDS011;10984;45.712;4.800;2023-07-30T00:24:27;4.45;;;2.35;;
21645;SDS011;10984;45.712;4.800;2023-07-30T00:26:53;6.47;;;2.45;;
21645;SDS011;10984;45.712;4.800;2023-07-30T00:29:19;4.88;;;2.45;;
21645;SDS011;10984;45.712;4.800;2023-07-30T00:31:46;4.68;;;2.67;;
21645;SDS011;10984;45.712;4.800;2023-07-30T00:34:12;5.53;;;2.63;;
21645;SDS011;10984;45.712;4.800;2023-07-30T00:36:39;5.75;;;2.53;;
21645;SDS011;10984;45.712;4.800;2023-07-30T00:39:05;4.60;;;2.53;;
21645;SDS011;10984;45.712;4.800;2023-07-30T00:41:31;4.80;;;2.72;;
21645;SDS011;10984;45.712;4.800;2023-07-30T00:43:58;10.13;;;2.88;;
21645;SDS011;10984;45.712;4.800;2023-07-30T00:46:24;4.47;;;2.60;;
21645;SDS011;10984;45.712;4.800;2023-07-30T00:48:51;4.28;;;2.53;;
21645;SDS011;10984;45.712;4.800;2023-07-30T00:51:17;5.88;;;2.38;;
21645;SDS011;10984;45.712;4.800;2023-07-30T00:53:45;8.13;;;2.60;;
21645;SDS011;10984;45.712;4.800;2023-07-30T00:56:30;3.92;;;2.05;;
21645;SDS011;10984;45.712;4.800;2023-07-30T00:58:56;6.20;;;2.85;;
21645;SDS011;10984;45.712;4.800;2023-07-30T01:01:23;4.30;;;2.45;;
21645;SDS011;10984;45.712;4.800;2023-07-30T01:03:49;5.50;;;2.92;;
21645;SDS011;10984;45.712;4.800;2023-07-30T01:06:16;5.22;;;3.10;;
21645;SDS011;10984;45.712;4.800;2023-07-30T01:08:43;8.30;;;2.67;;
21645;SDS011;10984;45.712;4.800;2023-07-30T01:11:10;3.85;;;2.50;;
21645;SDS011;10984;45.712;4.800;2023-07-30T01:13:36;5.43;;;2.75;;
21645;SDS011;10984;45.712;4.800;2023-07-30T01:16:04;4.00;;;2.42;;
21645;SDS011;10984;45.712;4.800;2023-07-30T01:18:32;4.03;;;2.30;;
21645;SDS011;10984;45.712;4.800;2023-07-30T01:20:59;6.22;;;2.90;;
21645;SDS011;10984;45.712;4.800;2023-07-30T01:23:26;4.55;;;2.75;;
21645;SDS011;10984;45.712;4.800;2023-07-30T01:25:59;7.47;;;3.30;;
21645;SDS011;10984;45.712;4.800;2023-07-30T01:28:45;4.30;;;2.25;;
21645;SDS011;10984;45.712;4.800;2023-07-30T01:31:14;5.70;;;2.20;;
21645;SDS011;10984;45.712;4.800;2023-07-30T01:33:42;3.88;;;2.28;;
21645;SDS011;10984;45.712;4.800;2023-07-30T01:36:12;3.85;;;2.42;;
21645;SDS011;10984;45.712;4.800;2023-07-30T01:38:41;4.38;;;2.60;;
21645;SDS011;10984;45.712;4.800;2023-07-30T01:41:09;4.25;;;2.28;;
21645;SDS011;10984;45.712;4.800;2023-07-30T01:43:35;6.13;;;2.40;;
21645;SDS011;10984;45.712;4.800;2023-07-30T01:46:02;4.78;;;2.72;;
21645;SDS011;10984;45.712;4.800;2023-07-30T01:48:28;6.03;;;2.50;;
21645;SDS011;10984;45.712;4.800;2023-07-30T01:50:54;4.65;;;2.00;;
21645;SDS011;10984;45.712;4.800;2023-07-30T01:53:21;4.00;;;2.58;;
21645;SDS011;10984;45.712;4.800;2023-07-30T01:55:47;4.70;;;2.70;;
21645;SDS011;10984;45.712;4.800;2023-07-30T01:58:14;8.50;;;2.65;;
21645;SDS011;10984;45.712;4.800;2023-07-30T02:00:40;4.00;;;2.25;;
21645;SDS011;10984;45.712;4.800;2023-07-30T02:03:07;4.00;;;2.15;;
21645;SDS011;10984;45.712;4.800;2023-07-30T02:05:33;3.95;;;2.22;;
21645;SDS011;10984;45.712;4.800;2023-07-30T02:08:00;6.07;;;2.95;;
21645;SDS011;10984;45.712;4.800;2023-07-30T02:10:26;4.70;;;2.63;;
21645;SDS011;10984;45.712;4.800;2023-07-30T02:12:52;4.60;;;2.33;;
21645;SDS011;10984;45.712;4.800;2023-07-30T02:15:19;5.65;;;2.40;;
21645;SDS011;10984;45.712;4.800;2023-07-30T02:17:45;4.55;;;2.15;;
21645;SDS011;10984;45.712;4.800;2023-07-30T02:20:12;4.40;;;2.38;;
21645;SDS011;10984;45.712;4.800;2023-07-30T02:22:38;4.25;;;2.30;;
21645;SDS011;10984;45.712;4.800;2023-07-30T02:25:05;4.97;;;2.67;;
21645;SDS011;10984;45.712;4.800;2023-07-30T02:27:31;4.63;;;3.03;;
21645;SDS011;10984;45.712;4.800;2023-07-30T02:29:58;4.05;;;2.47;;
21645;SDS011;10984;45.712;4.800;2023-07-30T02:32:24;6.05;;;2.63;;
21645;SDS011;10984;45.712;4.800;2023-07-30T02:34:50;8.10;;;3.33;;
21645;SDS011;10984;45.712;4.800;2023-07-30T02:37:17;4.90;;;2.80;;
21645;SDS011;10984;45.712;4.800;2023-07-30T02:39:43;13.73;;;3.50;;
21645;SDS011;10984;45.712;4.800;2023-07-30T02:42:09;5.15;;;2.67;;
21645;SDS011;10984;45.712;4.800;2023-07-30T02:44:36;4.78;;;2.50;;
21645;SDS011;10984;45.712;4.800;2023-07-30T02:47:02;4.53;;;2.97;;
21645;SDS011;10984;45.712;4.800;2023-07-30T02:49:28;5.22;;;2.85;;
21645;SDS011;10984;45.712;4.800;2023-07-30T02:51:55;4.40;;;2.55;;
21645;SDS011;10984;45.712;4.800;2023-07-30T02:54:21;9.52;;;2.95;;
21645;SDS011;10984;45.712;4.800;2023-07-30T02:56:48;4.72;;;3.10;;
21645;SDS011;10984;45.712;4.800;2023-07-30T02:59:14;6.10;;;3.53;;
21645;SDS011;10984;45.712;4.800;2023-07-30T03:01:40;7.10;;;3.15;;
21645;SDS011;10984;45.712;4.800;2023-07-30T03:04:07;5.13;;;3.03;;
21645;SDS011;10984;45.712;4.800;2023-07-30T03:06:33;5.50;;;3.08;;
21645;SDS011;10984;45.712;4.800;2023-07-30T03:09:00;6.82;;;3.33;;
21645;SDS011;10984;45.712;4.800;2023-07-30T03:11:26;8.70;;;3.42;;
21645;SDS011;10984;45.712;4.800;2023-07-30T03:13:52;5.70;;;3.40;;
21645;SDS011;10984;45.712;4.800;2023-07-30T03:16:19;7.60;;;3.95;;
21645;SDS011;10984;45.712;4.800;2023-07-30T03:18:45;5.95;;;3.05;;
21645;SDS011;10984;45.712;4.800;2023-07-30T03:21:11;7.15;;;2.90;;
21645;SDS011;10984;45.712;4.800;2023-07-30T03:23:38;8.50;;;3.72;;
21645;SDS011;10984;45.712;4.800;2023-07-30T03:26:06;5.82;;;3.35;;
21645;SDS011;10984;45.712;4.800;2023-07-30T03:28:32;6.97;;;3.90;;
21645;SDS011;10984;45.712;4.800;2023-07-30T03:30:58;8.05;;;3.38;;
21645;SDS011;10984;45.712;4.800;2023-07-30T03:33:25;6.43;;;3.60;;
21645;SDS011;10984;45.712;4.800;2023-07-30T03:35:51;7.68;;;3.58;;
21645;SDS011;10984;45.712;4.800;2023-07-30T03:38:17;5.63;;;3.25;;
21645;SDS011;10984;45.712;4.800;2023-07-30T03:40:44;7.38;;;3.70;;
21645;SDS011;10984;45.712;4.800;2023-07-30T03:43:10;5.35;;;3.53;;
21645;SDS011;10984;45.712;4.800;2023-07-30T03:45:36;4.30;;;2.58;;
21645;SDS011;10984;45.712;4.800;2023-07-30T03:48:03;4.93;;;3.20;;
21645;SDS011;10984;45.712;4.800;2023-07-30T03:50:29;5.68;;;3.15;;
21645;SDS011;10984;45.712;4.800;2023-07-30T03:52:55;4.55;;;2.90;;
21645;SDS011;10984;45.712;4.800;2023-07-30T03:55:23;5.80;;;3.13;;
21645;SDS011;10984;45.712;4.800;2023-07-30T03:57:49;5.72;;;3.05;;
21645;SDS011;10984;45.712;4.800;2023-07-30T04:00:16;5.45;;;3.00;;
21645;SDS011;10984;45.712;4.800;2023-07-30T04:02:42;7.85;;;3.42;;
21645;SDS011;10984;45.712;4.800;2023-07-30T04:05:09;6.55;;;2.90;;
21645;SDS011;10984;45.712;4.800;2023-07-30T04:07:35;6.25;;;3.63;;
21645;SDS011;10984;45.712;4.800;2023-07-30T04:10:01;6.85;;;2.85;;
21645;SDS011;10984;45.712;4.800;2023-07-30T04:12:28;4.60;;;2.80;;
21645;SDS011;10984;45.712;4.800;2023-07-30T04:14:54;8.25;;;3.00;;
21645;SDS011;10984;45.712;4.800;2023-07-30T04:17:21;7.88;;;3.33;;
21645;SDS011;10984;45.712;4.800;2023-07-30T04:19:47;4.40;;;2.78;;
21645;SDS011;10984;45.712;4.800;2023-07-30T04:22:13;6.82;;;2.67;;
21645;SDS011;10984;45.712;4.800;2023-07-30T04:24:40;4.63;;;2.72;;
21645;SDS011;10984;45.712;4.800;2023-07-30T04:27:06;4.00;;;2.47;;
21645;SDS011;10984;45.712;4.800;2023-07-30T04:29:33;4.50;;;2.67;;
21645;SDS011;10984;45.712;4.800;2023-07-30T04:31:59;4.28;;;2.42;;
21645;SDS011;10984;45.712;4.800;2023-07-30T04:34:26;4.45;;;2.78;;
21645;SDS011;10984;45.712;4.800;2023-07-30T04:36:52;3.67;;;2.20;;
21645;SDS011;10984;45.712;4.800;2023-07-30T04:39:18;9.45;;;2.67;;
21645;SDS011;10984;45.712;4.800;2023-07-30T04:41:45;4.63;;;2.40;;
21645;SDS011;10984;45.712;4.800;2023-07-30T04:44:11;4.47;;;2.70;;
21645;SDS011;10984;45.712;4.800;2023-07-30T04:46:38;3.55;;;2.15;;
21645;SDS011;10984;45.712;4.800;2023-07-30T04:49:04;5.88;;;2.20;;
21645;SDS011;10984;45.712;4.800;2023-07-30T04:51:30;9.60;;;3.10;;
21645;SDS011;10984;45.712;4.800;2023-07-30T04:53:57;3.75;;;2.15;;
21645;SDS011;10984;45.712;4.800;2023-07-30T04:56:23;7.05;;;3.05;;
21645;SDS011;10984;45.712;4.800;2023-07-30T04:58:51;4.63;;;2.70;;
21645;SDS011;10984;45.712;4.800;2023-07-30T05:01:18;4.47;;;2.22;;
21645;SDS011;10984;45.712;4.800;2023-07-30T05:03:44;4.72;;;2.42;;
21645;SDS011;10984;45.712;4.800;2023-07-30T05:06:11;6.22;;;3.00;;
21645;SDS011;10984;45.712;4.800;2023-07-30T05:08:37;3.90;;;2.28;;
21645;SDS011;10984;45.712;4.800;2023-07-30T05:11:04;3.83;;;2.60;;
21645;SDS011;10984;45.712;4.800;2023-07-30T05:13:30;4.55;;;2.80;;
21645;SDS011;10984;45.712;4.800;2023-07-30T05:15:56;4.07;;;2.42;;
21645;SDS011;10984;45.712;4.800;2023-07-30T05:18:23;5.75;;;2.15;;
21645;SDS011;10984;45.712;4.800;2023-07-30T05:20:49;3.83;;;1.92;;
21645;SDS011;10984;45.712;4.800;2023-07-30T05:23:15;4.88;;;1.80;;
21645;SDS011;10984;45.712;4.800;2023-07-30T05:25:42;4.65;;;2.00;;
21645;SDS011;10984;45.712;4.800;2023-07-30T05:28:08;6.35;;;1.75;;
21645;SDS011;10984;45.712;4.800;2023-07-30T05:30:35;4.40;;;1.70;;
21645;SDS011;10984;45.712;4.800;2023-07-30T05:33:01;3.45;;;1.75;;
21645;SDS011;10984;45.712;4.800;2023-07-30T05:35:27;4.60;;;2.17;;
21645;SDS011;10984;45.712;4.800;2023-07-30T05:37:54;2.83;;;1.27;;
21645;SDS011;10984;45.712;4.800;2023-07-30T05:40:20;5.72;;;1.90;;
21645;SDS011;10984;45.712;4.800;2023-07-30T05:45:33;4.85;;;1.40;;
21645;SDS011;10984;45.712;4.800;2023-07-30T05:48:00;2.25;;;1.08;;
21645;SDS011;10984;45.712;4.800;2023-07-30T05:50:26;2.40;;;1.15;;
21645;SDS011;10984;45.712;4.800;2023-07-30T05:52:52;2.10;;;0.90;;
21645;SDS011;10984;45.712;4.800;2023-07-30T05:55:19;2.35;;;0.80;;
21645;SDS011;10984;45.712;4.800;2023-07-30T05:57:45;6.22;;;0.98;;
21645;SDS011;10984;45.712;4.800;2023-07-30T06:00:11;2.13;;;0.95;;
21645;SDS011;10984;45.712;4.800;2023-07-30T06:02:38;2.53;;;1.00;;
21645;SDS011;10984;45.712;4.800;2023-07-30T06:05:04;1.75;;;0.90;;
21645;SDS011;10984;45.712;4.800;2023-07-30T06:07:31;1.70;;;0.70;;
21645;SDS011;10984;45.712;4.800;2023-07-30T06:09:57;1.10;;;0.70;;
21645;SDS011;10984;45.712;4.800;2023-07-30T06:12:23;3.28;;;0.80;;
21645;SDS011;10984;45.712;4.800;2023-07-30T06:14:50;2.42;;;0.80;;
21645;SDS011;10984;45.712;4.800;2023-07-30T06:17:16;1.63;;;0.50;;
21645;SDS011;10984;45.712;4.800;2023-07-30T06:19:43;1.40;;;0.70;;
21645;SDS011;10984;45.712;4.800;2023-07-30T06:22:09;1.60;;;0.70;;
21645;SDS011;10984;45.712;4.800;2023-07-30T06:24:35;3.80;;;0.65;;
21645;SDS011;10984;45.712;4.800;2023-07-30T06:27:02;1.58;;;0.70;;
21645;SDS011;10984;45.712;4.800;2023-07-30T06:29:28;2.90;;;0.70;;
21645;SDS011;10984;45.712;4.800;2023-07-30T06:31:55;1.73;;;0.73;;
21645;SDS011;10984;45.712;4.800;2023-07-30T06:34:21;2.63;;;0.90;;
21645;SDS011;10984;45.712;4.800;2023-07-30T06:36:47;2.95;;;0.80;;
21645;SDS011;10984;45.712;4.800;2023-07-30T06:39:14;1.88;;;0.85;;
21645;SDS011;10984;45.712;4.800;2023-07-30T06:41:40;3.55;;;1.20;;
21645;SDS011;10984;45.712;4.800;2023-07-30T06:44:07;2.22;;;1.00;;
21645;SDS011;10984;45.712;4.800;2023-07-30T06:46:33;1.40;;;0.68;;
21645;SDS011;10984;45.712;4.800;2023-07-30T06:49:00;2.28;;;0.90;;
21645;SDS011;10984;45.712;4.800;2023-07-30T06:51:26;1.65;;;0.80;;
21645;SDS011;10984;45.712;4.800;2023-07-30T06:53:53;1.42;;;0.70;;
21645;SDS011;10984;45.712;4.800;2023-07-30T06:56:20;4.40;;;0.90;;
21645;SDS011;10984;45.712;4.800;2023-07-30T06:58:46;1.23;;;0.50;;
21645;SDS011;10984;45.712;4.800;2023-07-30T07:01:12;4.03;;;0.70;;
21645;SDS011;10984;45.712;4.800;2023-07-30T07:03:39;2.05;;;0.70;;
21645;SDS011;10984;45.712;4.800;2023-07-30T07:06:05;1.63;;;0.70;;
21645;SDS011;10984;45.712;4.800;2023-07-30T07:08:31;5.93;;;0.80;;
21645;SDS011;10984;45.712;4.800;2023-07-30T07:10:58;2.13;;;0.70;;
21645;SDS011;10984;45.712;4.800;2023-07-30T07:13:24;2.00;;;0.80;;
21645;SDS011;10984;45.712;4.800;2023-07-30T07:15:51;1.60;;;0.75;;
21645;SDS011;10984;45.712;4.800;2023-07-30T07:18:17;1.77;;;0.90;;
21645;SDS011;10984;45.712;4.800;2023-07-30T07:20:44;1.52;;;0.70;;
21645;SDS011;10984;45.712;4.800;2023-07-30T07:23:10;1.83;;;0.75;;
21645;SDS011;10984;45.712;4.800;2023-07-30T07:25:40;1.38;;;0.70;;
21645;SDS011;10984;45.712;4.800;2023-07-30T07:28:06;1.83;;;0.95;;
21645;SDS011;10984;45.712;4.800;2023-07-30T07:30:34;1.88;;;0.80;;
21645;SDS011;10984;45.712;4.800;2023-07-30T07:33:02;1.98;;;0.90;;
21645;SDS011;10984;45.712;4.800;2023-07-30T07:35:28;4.60;;;1.10;;
21645;SDS011;10984;45.712;4.800;2023-07-30T07:37:55;12.38;;;3.10;;
21645;SDS011;10984;45.712;4.800;2023-07-30T07:40:22;2.63;;;0.88;;
21645;SDS011;10984;45.712;4.800;2023-07-30T07:42:48;3.50;;;1.75;;
21645;SDS011;10984;45.712;4.800;2023-07-30T07:45:15;2.00;;;0.93;;
21645;SDS011;10984;45.712;4.800;2023-07-30T07:47:41;2.10;;;0.95;;
21645;SDS011;10984;45.712;4.800;2023-07-30T07:50:26;2.95;;;1.02;;
21645;SDS011;10984;45.712;4.800;2023-07-30T07:52:52;1.67;;;0.80;;
21645;SDS011;10984;45.712;4.800;2023-07-30T07:55:19;1.48;;;0.70;;
21645;SDS011;10984;45.712;4.800;2023-07-30T07:57:45;1.90;;;0.80;;
21645;SDS011;10984;45.712;4.800;2023-07-30T08:00:11;1.90;;;0.90;;
21645;SDS011;10984;45.712;4.800;2023-07-30T08:02:37;2.00;;;1.00;;
21645;SDS011;10984;45.712;4.800;2023-07-30T08:05:04;1.52;;;0.73;;
21645;SDS011;10984;45.712;4.800;2023-07-30T08:07:30;3.15;;;0.80;;
21645;SDS011;10984;45.712;4.800;2023-07-30T08:09:57;2.15;;;0.95;;
21645;SDS011;10984;45.712;4.800;2023-07-30T08:12:23;1.60;;;0.60;;
21645;SDS011;10984;45.712;4.800;2023-07-30T08:14:49;3.40;;;1.13;;
21645;SDS011;10984;45.712;4.800;2023-07-30T08:17:17;1.90;;;1.00;;
21645;SDS011;10984;45.712;4.800;2023-07-30T08:19:46;2.20;;;0.90;;
21645;SDS011;10984;45.712;4.800;2023-07-30T08:22:12;2.72;;;0.93;;
21645;SDS011;10984;45.712;4.800;2023-07-30T08:24:38;3.28;;;1.35;;
21645;SDS011;10984;45.712;4.800;2023-07-30T08:27:05;2.65;;;1.08;;
21645;SDS011;10984;45.712;4.800;2023-07-30T08:29:31;4.10;;;1.10;;
21645;SDS011;10984;45.712;4.800;2023-07-30T08:31:57;3.00;;;1.10;;
21645;SDS011;10984;45.712;4.800;2023-07-30T08:34:24;1.80;;;0.90;;
21645;SDS011;10984;45.712;4.800;2023-07-30T08:36:50;2.78;;;1.02;;
21645;SDS011;10984;45.712;4.800;2023-07-30T08:39:17;2.90;;;1.05;;
21645;SDS011;10984;45.712;4.800;2023-07-30T08:41:43;2.80;;;1.23;;
21645;SDS011;10984;45.712;4.800;2023-07-30T08:44:10;2.67;;;1.08;;
21645;SDS011;10984;45.712;4.800;2023-07-30T08:46:37;4.85;;;1.40;;
21645;SDS011;10984;45.712;4.800;2023-07-30T08:49:04;2.22;;;1.17;;
21645;SDS011;10984;45.712;4.800;2023-07-30T08:51:31;3.67;;;1.20;;
21645;SDS011;10984;45.712;4.800;2023-07-30T08:53:58;2.53;;;0.95;;
21645;SDS011;10984;45.712;4.800;2023-07-30T08:56:27;2.92;;;0.88;;
21645;SDS011;10984;45.712;4.800;2023-07-30T08:58:55;2.35;;;0.90;;
21645;SDS011;10984;45.712;4.800;2023-07-30T09:01:25;3.67;;;1.10;;
21645;SDS011;10984;45.712;4.800;2023-07-30T09:03:58;2.55;;;1.10;;
21645;SDS011;10984;45.712;4.800;2023-07-30T09:06:44;1.90;;;0.73;;
21645;SDS011;10984;45.712;4.800;2023-07-30T09:09:14;4.10;;;1.40;;
21645;SDS011;10984;45.712;4.800;2023-07-30T09:11:41;1.98;;;0.73;;
21645;SDS011;10984;45.712;4.800;2023-07-30T09:14:07;4.20;;;1.08;;
21645;SDS011;10984;45.712;4.800;2023-07-30T09:16:34;3.65;;;1.08;;
21645;SDS011;10984;45.712;4.800;2023-07-30T09:19:01;2.40;;;1.20;;
21645;SDS011;10984;45.712;4.800;2023-07-30T09:24:12;2.58;;;1.02;;
21645;SDS011;10984;45.712;4.800;2023-07-30T09:26:46;2.65;;;1.30;;
21645;SDS011;10984;45.712;4.800;2023-07-30T09:29:12;2.47;;;1.30;;
21645;SDS011;10984;45.712;4.800;2023-07-30T09:34:24;2.20;;;1.10;;
21645;SDS011;10984;45.712;4.800;2023-07-30T09:36:51;1.85;;;0.90;;
21645;SDS011;10984;45.712;4.800;2023-07-30T09:39:20;3.28;;;0.77;;
21645;SDS011;10984;45.712;4.800;2023-07-30T09:41:51;2.83;;;1.10;;
21645;SDS011;10984;45.712;4.800;2023-07-30T09:44:19;2.72;;;0.90;;
21645;SDS011;10984;45.712;4.800;2023-07-30T09:46:47;2.20;;;0.88;;
21645;SDS011;10984;45.712;4.800;2023-07-30T09:49:15;2.50;;;1.20;;
21645;SDS011;10984;45.712;4.800;2023-07-30T09:51:42;1.85;;;0.90;;
21645;SDS011;10984;45.712;4.800;2023-07-30T09:56:54;2.50;;;1.13;;
21645;SDS011;10984;45.712;4.800;2023-07-30T09:59:20;3.25;;;1.20;;
21645;SDS011;10984;45.712;4.800;2023-07-30T10:01:47;1.73;;;0.90;;
21645;SDS011;10984;45.712;4.800;2023-07-30T10:04:15;2.15;;;1.10;;
21645;SDS011;10984;45.712;4.800;2023-07-30T10:06:45;2.55;;;0.70;;
21645;SDS011;10984;45.712;4.800;2023-07-30T10:09:34;4.85;;;0.90;;
21645;SDS011;10984;45.712;4.800;2023-07-30T10:12:12;2.17;;;0.90;;
21645;SDS011;10984;45.712;4.800;2023-07-30T10:14:41;2.58;;;0.95;;
21645;SDS011;10984;45.712;4.800;2023-07-30T10:17:10;3.58;;;1.00;;
21645;SDS011;10984;45.712;4.800;2023-07-30T10:19:37;2.67;;;1.10;;
21645;SDS011;10984;45.712;4.800;2023-07-30T10:27:41;2.40;;;1.10;;
21645;SDS011;10984;45.712;4.800;2023-07-30T10:30:29;1.90;;;0.80;;
21645;SDS011;10984;45.712;4.800;2023-07-30T10:35:43;4.88;;;1.40;;
21645;SDS011;10984;45.712;4.800;2023-07-30T10:46:29;3.05;;;1.10;;
21645;SDS011;10984;45.712;4.800;2023-07-30T10:48:56;2.67;;;1.13;;
21645;SDS011;10984;45.712;4.800;2023-07-30T10:51:22;4.20;;;1.40;;
21645;SDS011;10984;45.712;4.800;2023-07-30T10:53:50;2.72;;;0.80;;
21645;SDS011;10984;45.712;4.800;2023-07-30T10:56:18;3.38;;;1.20;;
21645;SDS011;10984;45.712;4.800;2023-07-30T10:58:48;2.95;;;1.20;;
21645;SDS011;10984;45.712;4.800;2023-07-30T11:01:17;2.70;;;1.10;;
21645;SDS011;10984;45.712;4.800;2023-07-30T11:03:47;2.75;;;1.10;;
21645;SDS011;10984;45.712;4.800;2023-07-30T11:06:20;3.50;;;1.10;;
21645;SDS011;10984;45.712;4.800;2023-07-30T11:08:48;2.75;;;1.10;;
21645;SDS011;10984;45.712;4.800;2023-07-30T11:11:14;3.90;;;1.20;;
21645;SDS011;10984;45.712;4.800;2023-07-30T11:13:42;2.25;;;1.10;;
21645;SDS011;10984;45.712;4.800;2023-07-30T11:16:13;2.15;;;1.10;;
21645;SDS011;10984;45.712;4.800;2023-07-30T11:18:41;3.35;;;1.42;;
21645;SDS011;10984;45.712;4.800;2023-07-30T11:21:09;2.55;;;0.98;;
21645;SDS011;10984;45.712;4.800;2023-07-30T11:23:37;3.53;;;1.00;;
21645;SDS011;10984;45.712;4.800;2023-07-30T11:26:06;2.00;;;1.00;;
21645;SDS011;10984;45.712;4.800;2023-07-30T11:28:34;2.90;;;0.90;;
21645;SDS011;10984;45.712;4.800;2023-07-30T11:31:03;3.30;;;0.90;;
21645;SDS011;10984;45.712;4.800;2023-07-30T11:33:30;2.47;;;1.10;;
21645;SDS011;10984;45.712;4.800;2023-07-30T11:36:00;3.33;;;1.13;;
21645;SDS011;10984;45.712;4.800;2023-07-30T11:38:28;2.78;;;0.73;;
21645;SDS011;10984;45.712;4.800;2023-07-30T11:40:57;3.17;;;1.02;;
21645;SDS011;10984;45.712;4.800;2023-07-30T11:43:24;2.13;;;0.88;;
21645;SDS011;10984;45.712;4.800;2023-07-30T11:49:10;4.13;;;0.70;;
21645;SDS011;10984;45.712;4.800;2023-07-30T11:54:40;2.78;;;0.95;;
21645;SDS011;10984;45.712;4.800;2023-07-30T11:57:06;2.25;;;1.00;;
21645;SDS011;10984;45.712;4.800;2023-07-30T11:59:32;2.45;;;0.98;;
21645;SDS011;10984;45.712;4.800;2023-07-30T12:01:59;1.85;;;0.85;;
21645;SDS011;10984;45.712;4.800;2023-07-30T12:04:30;2.90;;;0.88;;
21645;SDS011;10984;45.712;4.800;2023-07-30T12:07:24;3.03;;;0.85;;
21645;SDS011;10984;45.712;4.800;2023-07-30T12:09:50;3.50;;;1.13;;
21645;SDS011;10984;45.712;4.800;2023-07-30T12:12:17;3.20;;;1.00;;
21645;SDS011;10984;45.712;4.800;2023-07-30T12:14:44;1.42;;;0.63;;
21645;SDS011;10984;45.712;4.800;2023-07-30T12:17:19;3.10;;;0.95;;
21645;SDS011;10984;45.712;4.800;2023-07-30T12:19:46;2.35;;;1.05;;
21645;SDS011;10984;45.712;4.800;2023-07-30T12:22:12;2.22;;;0.85;;
21645;SDS011;10984;45.712;4.800;2023-07-30T12:24:40;2.22;;;0.95;;
21645;SDS011;10984;45.712;4.800;2023-07-30T12:29:52;2.10;;;0.82;;
21645;SDS011;10984;45.712;4.800;2023-07-30T12:32:18;2.28;;;0.82;;
21645;SDS011;10984;45.712;4.800;2023-07-30T12:34:44;1.75;;;0.80;;
21645;SDS011;10984;45.712;4.800;2023-07-30T12:37:11;1.42;;;0.50;;
21645;SDS011;10984;45.712;4.800;2023-07-30T12:39:37;2.20;;;0.73;;
21645;SDS011;10984;45.712;4.800;2023-07-30T12:42:04;2.92;;;1.10;;
21645;SDS011;10984;45.712;4.800;2023-07-30T12:44:30;4.35;;;1.13;;
21645;SDS011;10984;45.712;4.800;2023-07-30T12:46:57;3.03;;;0.90;;
21645;SDS011;10984;45.712;4.800;2023-07-30T12:49:23;1.92;;;0.77;;
21645;SDS011;10984;45.712;4.800;2023-07-30T12:51:49;2.42;;;0.90;;
21645;SDS011;10984;45.712;4.800;2023-07-30T12:54:16;3.00;;;1.10;;
21645;SDS011;10984;45.712;4.800;2023-07-30T12:56:42;4.18;;;1.20;;
21645;SDS011;10984;45.712;4.800;2023-07-30T12:59:08;2.10;;;0.93;;
21645;SDS011;10984;45.712;4.800;2023-07-30T13:01:35;2.47;;;0.75;;
21645;SDS011;10984;45.712;4.800;2023-07-30T13:04:01;3.90;;;0.70;;
21645;SDS011;10984;45.712;4.800;2023-07-30T13:06:27;10.50;;;1.88;;
21645;SDS011;10984;45.712;4.800;2023-07-30T13:08:54;3.03;;;1.02;;
21645;SDS011;10984;45.712;4.800;2023-07-30T13:11:20;1.95;;;0.82;;
21645;SDS011;10984;45.712;4.800;2023-07-30T13:13:46;3.85;;;0.70;;
21645;SDS011;10984;45.712;4.800;2023-07-30T13:16:12;2.80;;;0.75;;
21645;SDS011;10984;45.712;4.800;2023-07-30T13:18:39;3.05;;;1.30;;
21645;SDS011;10984;45.712;4.800;2023-07-30T13:21:05;1.85;;;0.82;;
21645;SDS011;10984;45.712;4.800;2023-07-30T13:23:31;2.65;;;0.80;;
21645;SDS011;10984;45.712;4.800;2023-07-30T13:25:58;1.85;;;0.80;;
21645;SDS011;10984;45.712;4.800;2023-07-30T13:28:24;1.80;;;0.88;;
21645;SDS011;10984;45.712;4.800;2023-07-30T13:30:51;1.38;;;0.65;;
21645;SDS011;10984;45.712;4.800;2023-07-30T13:33:18;2.13;;;0.88;;
21645;SDS011;10984;45.712;4.800;2023-07-30T13:35:44;2.95;;;0.85;;
21645;SDS011;10984;45.712;4.800;2023-07-30T13:38:10;2.20;;;1.00;;
21645;SDS011;10984;45.712;4.800;2023-07-30T13:40:37;2.10;;;0.90;;
21645;SDS011;10984;45.712;4.800;2023-07-30T13:43:03;2.38;;;0.90;;
21645;SDS011;10984;45.712;4.800;2023-07-30T13:45:29;3.90;;;0.93;;
21645;SDS011;10984;45.712;4.800;2023-07-30T13:47:56;2.50;;;0.90;;
21645;SDS011;10984;45.712;4.800;2023-07-30T13:50:23;5.15;;;0.77;;
21645;SDS011;10984;45.712;4.800;2023-07-30T13:52:49;2.92;;;0.80;;
21645;SDS011;10984;45.712;4.800;2023-07-30T13:55:15;1.88;;;1.00;;
21645;SDS011;10984;45.712;4.800;2023-07-30T13:57:42;2.53;;;1.00;;
21645;SDS011;10984;45.712;4.800;2023-07-30T14:00:08;2.78;;;0.77;;
21645;SDS011;10984;45.712;4.800;2023-07-30T14:02:35;1.83;;;0.75;;
21645;SDS011;10984;45.712;4.800;2023-07-30T14:05:02;4.15;;;2.00;;
21645;SDS011;10984;45.712;4.800;2023-07-30T14:07:28;1.95;;;1.05;;
21645;SDS011;10984;45.712;4.800;2023-07-30T14:09:55;2.25;;;0.95;;
21645;SDS011;10984;45.712;4.800;2023-07-30T14:12:21;1.92;;;0.75;;
21645;SDS011;10984;45.712;4.800;2023-07-30T14:14:47;1.95;;;0.88;;
21645;SDS011;10984;45.712;4.800;2023-07-30T14:17:14;2.72;;;0.75;;
21645;SDS011;10984;45.712;4.800;2023-07-30T14:19:40;2.00;;;0.93;;
21645;SDS011;10984;45.712;4.800;2023-07-30T14:22:06;4.88;;;1.42;;
21645;SDS011;10984;45.712;4.800;2023-07-30T14:24:33;1.95;;;0.80;;
21645;SDS011;10984;45.712;4.800;2023-07-30T14:27:00;1.52;;;0.77;;
21645;SDS011;10984;45.712;4.800;2023-07-30T14:29:27;2.88;;;0.80;;
21645;SDS011;10984;45.712;4.800;2023-07-30T14:31:53;3.05;;;0.93;;
21645;SDS011;10984;45.712;4.800;2023-07-30T14:34:20;9.82;;;0.90;;
21645;SDS011;10984;45.712;4.800;2023-07-30T14:36:46;2.58;;;0.98;;
21645;SDS011;10984;45.712;4.800;2023-07-30T14:39:12;2.03;;;0.90;;
21645;SDS011;10984;45.712;4.800;2023-07-30T14:41:39;1.83;;;0.68;;
21645;SDS011;10984;45.712;4.800;2023-07-30T14:44:10;1.83;;;0.80;;
21645;SDS011;10984;45.712;4.800;2023-07-30T14:46:36;2.67;;;1.02;;
21645;SDS011;10984;45.712;4.800;2023-07-30T14:49:03;2.80;;;0.93;;
21645;SDS011;10984;45.712;4.800;2023-07-30T14:51:29;2.42;;;0.82;;
21645;SDS011;10984;45.712;4.800;2023-07-30T14:53:55;2.17;;;0.80;;
21645;SDS011;10984;45.712;4.800;2023-07-30T14:56:22;2.60;;;1.00;;
21645;SDS011;10984;45.712;4.800;2023-07-30T14:58:48;5.25;;;1.80;;
21645;SDS011;10984;45.712;4.800;2023-07-30T15:01:15;3.00;;;1.10;;
21645;SDS011;10984;45.712;4.800;2023-07-30T15:03:41;3.63;;;1.30;;
21645;SDS011;10984;45.712;4.800;2023-07-30T15:06:07;3.58;;;1.05;;
21645;SDS011;10984;45.712;4.800;2023-07-30T15:08:34;3.13;;;1.27;;
21645;SDS011;10984;45.712;4.800;2023-07-30T15:11:00;2.10;;;0.80;;
21645;SDS011;10984;45.712;4.800;2023-07-30T15:13:27;2.05;;;0.68;;
21645;SDS011;10984;45.712;4.800;2023-07-30T15:15:53;2.85;;;0.98;;
21645;SDS011;10984;45.712;4.800;2023-07-30T15:18:20;2.38;;;0.90;;
21645;SDS011;10984;45.712;4.800;2023-07-30T15:20:47;3.00;;;1.10;;
21645;SDS011;10984;45.712;4.800;2023-07-30T15:23:14;2.35;;;0.88;;